Crane, TX (79731)

4:27 AM CST on December 09, 2016 (GMT -0600)
McCamey Middle School | | Change Station
Active Advisory: Hard Freeze Warning

Elev 2438 ft 31.13 °N, 102.22 °W | Updated 3 seconds ago

Overcast
Overcast
30.2 °F
Feels Like 30 °F
N
2.7
Wind Variable Wind from ESE
Gusts 4.9 mph

Today
High -- | Low -- °F
--% Chance of Precip.
Yesterday
High -- | Low -- °F
Precip. -- in
Pressure 30.54 in
Visibility 10.0 miles
Clouds Overcast 3000 ft
Windchill 30 °F
Dew Point 26 °F
Humidity 84%
Rainfall 0.00 in
Snow Depth Not available.
7:37 AM 5:46 PM
Waxing Gibbous, 72% visible
METAR KODO 090953Z AUTO 19005KT 10SM OVC030 M02/M06 A3051 RMK AO2 SLP342 T10221061
Pressure 30.54 in
Visibility 10.0 miles
Clouds Overcast 3000 ft
Windchill 30 °F
Dew Point 26 °F
Humidity 84%
Rainfall 0.00 in
Snow Depth Not available.
7:37 AM 5:46 PM
Waxing Gibbous, 72% visible
METAR KODO 090953Z AUTO 19005KT 10SM OVC030 M02/M06 A3051 RMK AO2 SLP342 T10221061

10-Day Weather Forecast

Almanac

Astronomy

Dec. 09, 2016 Rise Set
Actual Time
Civil Twilight
Nautical Twilight
Astronomical Twilight
Moon
Length of Visible Light
Length of Day
Tomorrow will be .
, % of the Moon is Illuminated

Today's Extremes

State Highs State Lows

Community

WunderPhotos

Upload Photos

1,956,378 photos uploaded!

WunderBlog® & News

Nearby

Air Quality

  Air Quality AQ Index Pollutant
Not available.

Snow Depth

Station Depth Elevation

Earthquake Activity

City Distance Mag. Time & Date
Minimum magnitude displayed is 2.5.

Coastal Water Temperatures

Place Temperature

Stations

Nearby Weather Stations

Station Location Temp. Windchill Dew Point Humidity Wind Precip. Elev Updated Type
                   

Watches & Warnings

Hard Freeze Warning
Issued: 3:35 AM CST Dec. 9, 2016 – National Weather Service

... Hard freeze warning remains in effect until 9 am CST this
morning...

* temperature... 21 to 32 degrees.

* Impacts... those with cold-sensitive plants or animals... or other
concerns related to freezing temperatures... should have
completed preparations. Make sure heaters are in proper working
order.

Precautionary/preparedness actions...

A hard freeze warning means widespread temperatures at or below
28 degrees are expected with sub-freezing temperatures expected
for several hours. To prevent freezing and possible bursting of
outdoor water pipes... they should be wrapped... drained or allowed
to drip slowly. These conditions will also kill crops and other
sensitive vegetation.